Terminal Aerodrome Forecast
Issued by NWS Quad Cities IA IL

Home | Current Version | Previous Version | Text Only | Print | Product List | Glossary On
Versions: 1 2 3 4 5 6 7 8 9 10 11 12 13 14 15 16
000
FTUS43 KDVN 210638 CCA
TAFDBQ
TAF COR
KDBQ 210638Z 2107/2206 VRB03KT 3SM BR BKN120
      TEMPO 2107/2108 1SM BR SCT002
     FM211100 VRB03KT 4SM -SHRA BR VCTS BKN008CB
     FM211500 17009KT P6SM BKN060
     FM211800 20013KT P6SM SCT040 BKN150=

USA.gov is the U.S. government's official web portal to all federal, state and local government web resources and services.